sensor_id;sensor_type;location;lat;lon;timestamp;P1;durP1;ratioP1;P2;durP2;ratioP2
8312;SDS011;4194;43.408;24.626;2023-04-06T00:01:02;6.30;;;5.53;;
8312;SDS011;4194;43.408;24.626;2023-04-06T00:03:28;6.67;;;5.33;;
8312;SDS011;4194;43.408;24.626;2023-04-06T00:05:53;7.13;;;5.40;;
8312;SDS011;4194;43.408;24.626;2023-04-06T00:08:19;6.10;;;5.50;;
8312;SDS011;4194;43.408;24.626;2023-04-06T00:10:46;6.60;;;5.90;;
8312;SDS011;4194;43.408;24.626;2023-04-06T00:13:12;6.20;;;5.60;;
8312;SDS011;4194;43.408;24.626;2023-04-06T00:15:37;7.90;;;6.13;;
8312;SDS011;4194;43.408;24.626;2023-04-06T00:18:03;7.17;;;5.43;;
8312;SDS011;4194;43.408;24.626;2023-04-06T00:20:29;6.60;;;5.70;;
8312;SDS011;4194;43.408;24.626;2023-04-06T00:22:55;6.47;;;5.83;;
8312;SDS011;4194;43.408;24.626;2023-04-06T00:25:21;5.90;;;5.30;;
8312;SDS011;4194;43.408;24.626;2023-04-06T00:27:46;5.90;;;5.30;;
8312;SDS011;4194;43.408;24.626;2023-04-06T00:30:12;7.47;;;5.90;;
8312;SDS011;4194;43.408;24.626;2023-04-06T00:32:38;6.60;;;5.90;;
8312;SDS011;4194;43.408;24.626;2023-04-06T00:35:04;6.17;;;5.30;;
8312;SDS011;4194;43.408;24.626;2023-04-06T00:37:31;9.13;;;5.80;;
8312;SDS011;4194;43.408;24.626;2023-04-06T00:39:57;7.73;;;5.80;;
8312;SDS011;4194;43.408;24.626;2023-04-06T00:42:23;6.07;;;5.20;;
8312;SDS011;4194;43.408;24.626;2023-04-06T00:44:52;5.83;;;5.20;;
8312;SDS011;4194;43.408;24.626;2023-04-06T00:47:18;6.60;;;5.90;;
8312;SDS011;4194;43.408;24.626;2023-04-06T00:49:44;6.57;;;5.80;;
8312;SDS011;4194;43.408;24.626;2023-04-06T00:52:10;7.37;;;5.83;;
8312;SDS011;4194;43.408;24.626;2023-04-06T00:54:35;7.30;;;5.73;;
8312;SDS011;4194;43.408;24.626;2023-04-06T00:57:01;7.17;;;5.53;;
8312;SDS011;4194;43.408;24.626;2023-04-06T00:59:27;6.93;;;5.83;;
8312;SDS011;4194;43.408;24.626;2023-04-06T01:01:53;6.80;;;5.33;;
8312;SDS011;4194;43.408;24.626;2023-04-06T01:04:19;6.63;;;5.93;;
8312;SDS011;4194;43.408;24.626;2023-04-06T01:06:48;6.37;;;5.70;;
8312;SDS011;4194;43.408;24.626;2023-04-06T01:09:14;7.10;;;5.87;;
8312;SDS011;4194;43.408;24.626;2023-04-06T01:11:40;7.20;;;5.63;;
8312;SDS011;4194;43.408;24.626;2023-04-06T01:14:06;6.07;;;5.20;;
8312;SDS011;4194;43.408;24.626;2023-04-06T01:16:32;6.47;;;5.60;;
8312;SDS011;4194;43.408;24.626;2023-04-06T01:18:58;7.90;;;6.80;;
8312;SDS011;4194;43.408;24.626;2023-04-06T01:21:24;6.40;;;5.50;;
8312;SDS011;4194;43.408;24.626;2023-04-06T01:23:50;8.20;;;6.13;;
8312;SDS011;4194;43.408;24.626;2023-04-06T01:26:16;6.63;;;6.00;;
8312;SDS011;4194;43.408;24.626;2023-04-06T01:28:42;7.30;;;6.03;;
8312;SDS011;4194;43.408;24.626;2023-04-06T01:31:09;8.10;;;7.30;;
8312;SDS011;4194;43.408;24.626;2023-04-06T01:33:35;7.47;;;6.13;;
8312;SDS011;4194;43.408;24.626;2023-04-06T01:36:02;8.30;;;6.97;;
8312;SDS011;4194;43.408;24.626;2023-04-06T01:38:28;6.90;;;6.10;;
8312;SDS011;4194;43.408;24.626;2023-04-06T01:40:54;7.60;;;5.93;;
8312;SDS011;4194;43.408;24.626;2023-04-06T01:43:20;6.70;;;5.90;;
8312;SDS011;4194;43.408;24.626;2023-04-06T01:45:46;7.33;;;5.87;;
8312;SDS011;4194;43.408;24.626;2023-04-06T01:48:12;7.10;;;6.17;;
8312;SDS011;4194;43.408;24.626;2023-04-06T01:50:37;7.70;;;6.50;;
8312;SDS011;4194;43.408;24.626;2023-04-06T01:53:03;7.03;;;6.30;;
8312;SDS011;4194;43.408;24.626;2023-04-06T01:55:29;8.73;;;7.07;;
8312;SDS011;4194;43.408;24.626;2023-04-06T01:57:54;8.50;;;6.37;;
8312;SDS011;4194;43.408;24.626;2023-04-06T02:00:20;10.37;;;6.83;;
8312;SDS011;4194;43.408;24.626;2023-04-06T02:02:46;7.50;;;6.73;;
8312;SDS011;4194;43.408;24.626;2023-04-06T02:05:12;7.93;;;7.13;;
8312;SDS011;4194;43.408;24.626;2023-04-06T02:07:37;8.10;;;6.40;;
8312;SDS011;4194;43.408;24.626;2023-04-06T02:10:03;7.53;;;6.73;;
8312;SDS011;4194;43.408;24.626;2023-04-06T02:12:29;7.57;;;6.77;;
8312;SDS011;4194;43.408;24.626;2023-04-06T02:14:55;7.37;;;6.27;;
8312;SDS011;4194;43.408;24.626;2023-04-06T02:17:21;9.60;;;6.63;;
8312;SDS011;4194;43.408;24.626;2023-04-06T02:19:46;7.47;;;6.10;;
8312;SDS011;4194;43.408;24.626;2023-04-06T02:22:12;7.17;;;6.40;;
8312;SDS011;4194;43.408;24.626;2023-04-06T02:24:38;7.93;;;6.77;;
8312;SDS011;4194;43.408;24.626;2023-04-06T02:27:03;7.43;;;5.93;;
8312;SDS011;4194;43.408;24.626;2023-04-06T02:29:30;7.53;;;6.60;;
8312;SDS011;4194;43.408;24.626;2023-04-06T02:31:55;8.47;;;6.83;;
8312;SDS011;4194;43.408;24.626;2023-04-06T02:34:21;7.97;;;6.30;;
8312;SDS011;4194;43.408;24.626;2023-04-06T02:36:47;8.63;;;7.33;;
8312;SDS011;4194;43.408;24.626;2023-04-06T02:39:12;7.63;;;6.67;;
8312;SDS011;4194;43.408;24.626;2023-04-06T02:41:38;8.90;;;6.37;;
8312;SDS011;4194;43.408;24.626;2023-04-06T02:44:06;8.27;;;7.37;;
8312;SDS011;4194;43.408;24.626;2023-04-06T02:46:33;8.67;;;6.63;;
8312;SDS011;4194;43.408;24.626;2023-04-06T02:48:59;8.67;;;7.43;;
8312;SDS011;4194;43.408;24.626;2023-04-06T02:51:26;8.97;;;7.33;;
8312;SDS011;4194;43.408;24.626;2023-04-06T02:53:52;9.00;;;7.10;;
8312;SDS011;4194;43.408;24.626;2023-04-06T02:56:18;8.57;;;7.30;;
8312;SDS011;4194;43.408;24.626;2023-04-06T02:58:44;9.33;;;6.93;;
8312;SDS011;4194;43.408;24.626;2023-04-06T03:01:09;10.47;;;7.53;;
8312;SDS011;4194;43.408;24.626;2023-04-06T03:03:35;10.23;;;7.80;;
8312;SDS011;4194;43.408;24.626;2023-04-06T03:06:01;9.60;;;7.67;;
8312;SDS011;4194;43.408;24.626;2023-04-06T03:08:28;7.90;;;6.90;;
8312;SDS011;4194;43.408;24.626;2023-04-06T03:10:54;9.47;;;7.57;;
8312;SDS011;4194;43.408;24.626;2023-04-06T03:13:20;9.80;;;7.60;;
8312;SDS011;4194;43.408;24.626;2023-04-06T03:15:46;9.93;;;7.93;;
8312;SDS011;4194;43.408;24.626;2023-04-06T03:18:11;10.57;;;8.33;;
8312;SDS011;4194;43.408;24.626;2023-04-06T03:20:37;9.33;;;7.57;;
8312;SDS011;4194;43.408;24.626;2023-04-06T03:23:03;10.00;;;7.67;;
8312;SDS011;4194;43.408;24.626;2023-04-06T03:25:29;8.43;;;7.53;;
8312;SDS011;4194;43.408;24.626;2023-04-06T03:27:55;9.87;;;7.37;;
8312;SDS011;4194;43.408;24.626;2023-04-06T03:30:21;8.97;;;7.90;;
8312;SDS011;4194;43.408;24.626;2023-04-06T03:32:47;11.50;;;8.53;;
8312;SDS011;4194;43.408;24.626;2023-04-06T03:35:12;10.60;;;8.10;;
8312;SDS011;4194;43.408;24.626;2023-04-06T03:37:38;9.33;;;7.23;;
8312;SDS011;4194;43.408;24.626;2023-04-06T03:40:04;10.10;;;8.23;;
8312;SDS011;4194;43.408;24.626;2023-04-06T03:42:31;12.10;;;8.30;;
8312;SDS011;4194;43.408;24.626;2023-04-06T03:44:58;10.90;;;8.40;;
8312;SDS011;4194;43.408;24.626;2023-04-06T03:47:23;9.57;;;7.93;;
8312;SDS011;4194;43.408;24.626;2023-04-06T03:49:50;12.17;;;9.13;;
8312;SDS011;4194;43.408;24.626;2023-04-06T03:52:16;9.77;;;8.20;;
8312;SDS011;4194;43.408;24.626;2023-04-06T03:54:41;11.10;;;8.23;;
8312;SDS011;4194;43.408;24.626;2023-04-06T03:57:07;9.30;;;7.60;;
8312;SDS011;4194;43.408;24.626;2023-04-06T03:59:33;10.10;;;9.00;;
8312;SDS011;4194;43.408;24.626;2023-04-06T04:01:58;10.10;;;7.50;;
8312;SDS011;4194;43.408;24.626;2023-04-06T04:04:24;10.23;;;8.00;;
8312;SDS011;4194;43.408;24.626;2023-04-06T04:06:50;9.80;;;8.37;;
8312;SDS011;4194;43.408;24.626;2023-04-06T04:09:15;10.20;;;8.30;;
8312;SDS011;4194;43.408;24.626;2023-04-06T04:11:41;13.90;;;8.77;;
8312;SDS011;4194;43.408;24.626;2023-04-06T04:14:07;10.83;;;9.03;;
8312;SDS011;4194;43.408;24.626;2023-04-06T04:16:33;13.47;;;8.67;;
8312;SDS011;4194;43.408;24.626;2023-04-06T04:18:58;15.27;;;9.33;;
8312;SDS011;4194;43.408;24.626;2023-04-06T04:21:24;14.30;;;9.00;;
8312;SDS011;4194;43.408;24.626;2023-04-06T04:23:50;15.10;;;8.13;;
8312;SDS011;4194;43.408;24.626;2023-04-06T04:26:17;11.83;;;9.13;;
8312;SDS011;4194;43.408;24.626;2023-04-06T04:28:43;9.47;;;7.93;;
8312;SDS011;4194;43.408;24.626;2023-04-06T04:31:09;9.63;;;7.50;;
8312;SDS011;4194;43.408;24.626;2023-04-06T04:33:35;16.63;;;8.47;;
8312;SDS011;4194;43.408;24.626;2023-04-06T04:36:01;15.33;;;8.60;;
8312;SDS011;4194;43.408;24.626;2023-04-06T04:38:27;12.23;;;9.07;;
8312;SDS011;4194;43.408;24.626;2023-04-06T04:40:52;11.33;;;8.60;;
8312;SDS011;4194;43.408;24.626;2023-04-06T04:43:18;11.10;;;8.37;;
8312;SDS011;4194;43.408;24.626;2023-04-06T04:45:44;13.63;;;8.53;;
8312;SDS011;4194;43.408;24.626;2023-04-06T04:48:10;11.60;;;7.67;;
8312;SDS011;4194;43.408;24.626;2023-04-06T04:50:35;10.40;;;8.10;;
8312;SDS011;4194;43.408;24.626;2023-04-06T04:53:01;8.50;;;7.57;;
8312;SDS011;4194;43.408;24.626;2023-04-06T04:55:30;11.03;;;7.73;;
8312;SDS011;4194;43.408;24.626;2023-04-06T04:57:56;12.77;;;8.53;;
8312;SDS011;4194;43.408;24.626;2023-04-06T05:00:21;10.93;;;7.87;;
8312;SDS011;4194;43.408;24.626;2023-04-06T05:02:47;8.57;;;7.67;;
8312;SDS011;4194;43.408;24.626;2023-04-06T05:05:13;9.90;;;8.27;;
8312;SDS011;4194;43.408;24.626;2023-04-06T05:07:39;9.10;;;7.20;;
8312;SDS011;4194;43.408;24.626;2023-04-06T05:10:05;17.20;;;8.43;;
8312;SDS011;4194;43.408;24.626;2023-04-06T05:12:31;11.03;;;7.93;;
8312;SDS011;4194;43.408;24.626;2023-04-06T05:14:57;11.23;;;7.93;;
8312;SDS011;4194;43.408;24.626;2023-04-06T05:17:23;10.23;;;7.90;;
8312;SDS011;4194;43.408;24.626;2023-04-06T05:19:49;12.33;;;7.67;;
8312;SDS011;4194;43.408;24.626;2023-04-06T05:22:14;9.67;;;7.40;;
8312;SDS011;4194;43.408;24.626;2023-04-06T05:24:42;10.57;;;7.97;;
8312;SDS011;4194;43.408;24.626;2023-04-06T05:27:08;13.63;;;7.97;;
8312;SDS011;4194;43.408;24.626;2023-04-06T05:29:34;12.50;;;7.53;;
8312;SDS011;4194;43.408;24.626;2023-04-06T05:32:00;10.43;;;7.57;;
8312;SDS011;4194;43.408;24.626;2023-04-06T05:34:26;11.20;;;7.93;;
8312;SDS011;4194;43.408;24.626;2023-04-06T05:36:52;10.47;;;7.30;;
8312;SDS011;4194;43.408;24.626;2023-04-06T05:39:18;10.23;;;7.30;;
8312;SDS011;4194;43.408;24.626;2023-04-06T05:41:44;9.57;;;7.43;;
8312;SDS011;4194;43.408;24.626;2023-04-06T05:44:10;14.67;;;7.43;;
8312;SDS011;4194;43.408;24.626;2023-04-06T05:46:36;8.10;;;6.50;;
8312;SDS011;4194;43.408;24.626;2023-04-06T05:49:01;10.00;;;6.80;;
8312;SDS011;4194;43.408;24.626;2023-04-06T05:51:27;9.23;;;7.13;;
8312;SDS011;4194;43.408;24.626;2023-04-06T05:53:53;11.07;;;8.13;;
8312;SDS011;4194;43.408;24.626;2023-04-06T05:56:18;9.90;;;7.30;;
8312;SDS011;4194;43.408;24.626;2023-04-06T05:58:44;10.40;;;7.53;;
8312;SDS011;4194;43.408;24.626;2023-04-06T06:01:10;12.27;;;7.10;;
8312;SDS011;4194;43.408;24.626;2023-04-06T06:03:36;8.07;;;6.83;;
8312;SDS011;4194;43.408;24.626;2023-04-06T06:06:02;9.57;;;7.00;;
8312;SDS011;4194;43.408;24.626;2023-04-06T06:08:29;8.80;;;6.33;;
8312;SDS011;4194;43.408;24.626;2023-04-06T06:10:55;8.80;;;7.33;;
8312;SDS011;4194;43.408;24.626;2023-04-06T06:13:21;11.03;;;7.70;;
8312;SDS011;4194;43.408;24.626;2023-04-06T06:15:48;14.10;;;7.90;;
8312;SDS011;4194;43.408;24.626;2023-04-06T06:18:13;11.80;;;7.73;;
8312;SDS011;4194;43.408;24.626;2023-04-06T06:20:39;13.93;;;7.97;;
8312;SDS011;4194;43.408;24.626;2023-04-06T06:23:05;10.37;;;6.90;;
8312;SDS011;4194;43.408;24.626;2023-04-06T06:25:31;9.50;;;7.23;;
8312;SDS011;4194;43.408;24.626;2023-04-06T06:27:57;8.73;;;6.97;;
8312;SDS011;4194;43.408;24.626;2023-04-06T06:30:23;13.03;;;6.80;;
8312;SDS011;4194;43.408;24.626;2023-04-06T06:32:49;10.70;;;7.27;;
8312;SDS011;4194;43.408;24.626;2023-04-06T06:35:15;12.47;;;7.53;;
8312;SDS011;4194;43.408;24.626;2023-04-06T06:37:46;9.93;;;7.50;;
8312;SDS011;4194;43.408;24.626;2023-04-06T06:40:11;10.77;;;7.17;;
8312;SDS011;4194;43.408;24.626;2023-04-06T06:42:42;10.13;;;6.97;;
8312;SDS011;4194;43.408;24.626;2023-04-06T06:45:07;12.20;;;8.63;;
8312;SDS011;4194;43.408;24.626;2023-04-06T06:47:34;7.63;;;6.40;;
8312;SDS011;4194;43.408;24.626;2023-04-06T06:50:00;9.60;;;7.20;;
8312;SDS011;4194;43.408;24.626;2023-04-06T06:52:26;8.33;;;6.50;;
8312;SDS011;4194;43.408;24.626;2023-04-06T06:54:53;9.67;;;6.80;;
8312;SDS011;4194;43.408;24.626;2023-04-06T06:57:19;10.07;;;6.67;;
8312;SDS011;4194;43.408;24.626;2023-04-06T06:59:45;12.90;;;7.50;;
8312;SDS011;4194;43.408;24.626;2023-04-06T07:02:11;9.10;;;7.13;;
8312;SDS011;4194;43.408;24.626;2023-04-06T07:04:36;10.53;;;7.43;;
8312;SDS011;4194;43.408;24.626;2023-04-06T07:07:02;8.40;;;6.87;;
8312;SDS011;4194;43.408;24.626;2023-04-06T07:09:28;9.63;;;7.07;;
8312;SDS011;4194;43.408;24.626;2023-04-06T07:11:54;8.67;;;6.77;;
8312;SDS011;4194;43.408;24.626;2023-04-06T07:14:21;10.80;;;7.23;;
8312;SDS011;4194;43.408;24.626;2023-04-06T07:16:47;13.57;;;7.73;;
8312;SDS011;4194;43.408;24.626;2023-04-06T07:19:13;8.13;;;7.10;;
8312;SDS011;4194;43.408;24.626;2023-04-06T07:21:39;8.60;;;7.17;;
8312;SDS011;4194;43.408;24.626;2023-04-06T07:24:05;10.40;;;7.17;;
8312;SDS011;4194;43.408;24.626;2023-04-06T07:26:31;10.63;;;7.13;;
8312;SDS011;4194;43.408;24.626;2023-04-06T07:28:56;10.97;;;6.53;;
8312;SDS011;4194;43.408;24.626;2023-04-06T07:31:22;9.37;;;6.87;;
8312;SDS011;4194;43.408;24.626;2023-04-06T07:33:48;8.87;;;6.83;;
8312;SDS011;4194;43.408;24.626;2023-04-06T07:36:15;10.70;;;6.87;;
8312;SDS011;4194;43.408;24.626;2023-04-06T07:38:40;8.70;;;7.10;;
8312;SDS011;4194;43.408;24.626;2023-04-06T07:41:06;9.47;;;6.70;;
8312;SDS011;4194;43.408;24.626;2023-04-06T07:43:32;9.17;;;6.30;;
8312;SDS011;4194;43.408;24.626;2023-04-06T07:45:57;9.83;;;7.03;;
8312;SDS011;4194;43.408;24.626;2023-04-06T07:48:25;9.40;;;6.30;;
8312;SDS011;4194;43.408;24.626;2023-04-06T07:50:51;10.70;;;6.97;;
8312;SDS011;4194;43.408;24.626;2023-04-06T07:53:16;7.70;;;6.30;;
8312;SDS011;4194;43.408;24.626;2023-04-06T07:55:42;9.37;;;6.53;;
8312;SDS011;4194;43.408;24.626;2023-04-06T07:58:08;7.47;;;6.03;;
8312;SDS011;4194;43.408;24.626;2023-04-06T08:00:34;9.43;;;6.13;;
8312;SDS011;4194;43.408;24.626;2023-04-06T08:03:00;9.07;;;6.47;;
8312;SDS011;4194;43.408;24.626;2023-04-06T08:05:26;9.90;;;6.43;;
8312;SDS011;4194;43.408;24.626;2023-04-06T08:07:51;8.90;;;6.37;;
8312;SDS011;4194;43.408;24.626;2023-04-06T08:10:17;9.73;;;6.70;;
8312;SDS011;4194;43.408;24.626;2023-04-06T08:12:43;8.93;;;6.87;;
8312;SDS011;4194;43.408;24.626;2023-04-06T08:15:09;6.07;;;5.30;;
8312;SDS011;4194;43.408;24.626;2023-04-06T08:17:35;9.70;;;5.33;;
8312;SDS011;4194;43.408;24.626;2023-04-06T08:20:00;8.00;;;6.13;;
8312;SDS011;4194;43.408;24.626;2023-04-06T08:22:28;8.63;;;6.17;;
8312;SDS011;4194;43.408;24.626;2023-04-06T08:24:54;8.33;;;5.70;;
8312;SDS011;4194;43.408;24.626;2023-04-06T08:27:20;9.80;;;5.73;;
8312;SDS011;4194;43.408;24.626;2023-04-06T08:29:45;8.50;;;5.60;;
8312;SDS011;4194;43.408;24.626;2023-04-06T08:32:12;8.60;;;5.53;;
8312;SDS011;4194;43.408;24.626;2023-04-06T08:34:38;8.97;;;5.43;;
8312;SDS011;4194;43.408;24.626;2023-04-06T08:37:03;8.60;;;5.70;;
8312;SDS011;4194;43.408;24.626;2023-04-06T08:39:30;6.27;;;5.33;;
8312;SDS011;4194;43.408;24.626;2023-04-06T08:41:58;6.67;;;5.23;;
8312;SDS011;4194;43.408;24.626;2023-04-06T08:44:27;7.23;;;5.80;;
8312;SDS011;4194;43.408;24.626;2023-04-06T08:46:55;7.17;;;6.10;;
8312;SDS011;4194;43.408;24.626;2023-04-06T08:49:21;9.30;;;5.73;;
8312;SDS011;4194;43.408;24.626;2023-04-06T08:51:47;9.07;;;5.40;;
8312;SDS011;4194;43.408;24.626;2023-04-06T08:54:12;5.90;;;5.20;;
8312;SDS011;4194;43.408;24.626;2023-04-06T08:56:39;6.97;;;5.33;;
8312;SDS011;4194;43.408;24.626;2023-04-06T08:59:05;7.57;;;5.37;;
8312;SDS011;4194;43.408;24.626;2023-04-06T09:01:33;7.43;;;4.80;;
8312;SDS011;4194;43.408;24.626;2023-04-06T09:04:02;6.93;;;5.57;;
8312;SDS011;4194;43.408;24.626;2023-04-06T09:06:34;11.07;;;5.90;;
8312;SDS011;4194;43.408;24.626;2023-04-06T09:09:01;7.30;;;5.40;;
8312;SDS011;4194;43.408;24.626;2023-04-06T09:11:28;7.27;;;5.37;;
8312;SDS011;4194;43.408;24.626;2023-04-06T09:13:54;8.40;;;5.30;;
8312;SDS011;4194;43.408;24.626;2023-04-06T09:16:21;7.40;;;5.20;;
8312;SDS011;4194;43.408;24.626;2023-04-06T09:18:48;7.50;;;5.57;;
8312;SDS011;4194;43.408;24.626;2023-04-06T09:21:16;5.93;;;4.60;;
8312;SDS011;4194;43.408;24.626;2023-04-06T09:23:43;8.73;;;5.23;;
8312;SDS011;4194;43.408;24.626;2023-04-06T09:26:10;6.77;;;4.17;;
8312;SDS011;4194;43.408;24.626;2023-04-06T09:31:08;6.67;;;4.97;;
8312;SDS011;4194;43.408;24.626;2023-04-06T09:33:37;6.47;;;5.03;;
8312;SDS011;4194;43.408;24.626;2023-04-06T09:36:05;5.33;;;4.63;;
8312;SDS011;4194;43.408;24.626;2023-04-06T09:38:31;8.00;;;4.83;;
8312;SDS011;4194;43.408;24.626;2023-04-06T09:40:57;5.37;;;4.37;;
8312;SDS011;4194;43.408;24.626;2023-04-06T09:43:26;6.20;;;4.83;;
8312;SDS011;4194;43.408;24.626;2023-04-06T09:45:52;8.97;;;4.50;;
8312;SDS011;4194;43.408;24.626;2023-04-06T09:48:19;9.00;;;4.87;;
8312;SDS011;4194;43.408;24.626;2023-04-06T09:50:49;5.17;;;4.20;;
8312;SDS011;4194;43.408;24.626;2023-04-06T09:53:18;6.73;;;4.30;;
8312;SDS011;4194;43.408;24.626;2023-04-06T09:55:46;5.73;;;4.57;;
8312;SDS011;4194;43.408;24.626;2023-04-06T09:58:16;7.63;;;4.40;;
8312;SDS011;4194;43.408;24.626;2023-04-06T10:00:47;7.63;;;4.63;;
8312;SDS011;4194;43.408;24.626;2023-04-06T10:03:52;6.20;;;4.03;;
8312;SDS011;4194;43.408;24.626;2023-04-06T10:06:26;6.07;;;3.83;;
8312;SDS011;4194;43.408;24.626;2023-04-06T10:08:54;5.80;;;3.70;;
8312;SDS011;4194;43.408;24.626;2023-04-06T10:11:22;6.60;;;4.43;;
8312;SDS011;4194;43.408;24.626;2023-04-06T10:13:48;6.87;;;4.40;;
8312;SDS011;4194;43.408;24.626;2023-04-06T10:16:15;4.90;;;4.00;;
8312;SDS011;4194;43.408;24.626;2023-04-06T10:18:43;9.60;;;5.03;;
8312;SDS011;4194;43.408;24.626;2023-04-06T10:21:14;6.07;;;4.60;;
8312;SDS011;4194;43.408;24.626;2023-04-06T10:23:45;8.47;;;4.43;;
8312;SDS011;4194;43.408;24.626;2023-04-06T10:26:15;6.90;;;4.40;;
8312;SDS011;4194;43.408;24.626;2023-04-06T10:28:42;8.70;;;5.20;;
8312;SDS011;4194;43.408;24.626;2023-04-06T10:31:10;8.27;;;4.43;;
8312;SDS011;4194;43.408;24.626;2023-04-06T10:33:36;6.90;;;4.47;;
8312;SDS011;4194;43.408;24.626;2023-04-06T10:36:14;5.07;;;4.47;;
8312;SDS011;4194;43.408;24.626;2023-04-06T10:38:53;8.47;;;4.13;;
8312;SDS011;4194;43.408;24.626;2023-04-06T10:41:34;5.20;;;4.07;;
8312;SDS011;4194;43.408;24.626;2023-04-06T10:44:07;6.57;;;4.80;;
8312;SDS011;4194;43.408;24.626;2023-04-06T10:46:33;6.93;;;4.67;;
8312;SDS011;4194;43.408;24.626;2023-04-06T10:49:11;5.83;;;4.53;;
8312;SDS011;4194;43.408;24.626;2023-04-06T10:51:38;5.60;;;3.90;;
8312;SDS011;4194;43.408;24.626;2023-04-06T10:54:05;5.50;;;4.27;;
8312;SDS011;4194;43.408;24.626;2023-04-06T10:56:31;7.47;;;4.37;;
8312;SDS011;4194;43.408;24.626;2023-04-06T10:59:01;7.13;;;4.33;;
8312;SDS011;4194;43.408;24.626;2023-04-06T11:01:27;7.33;;;4.23;;
8312;SDS011;4194;43.408;24.626;2023-04-06T11:03:54;6.47;;;4.17;;
8312;SDS011;4194;43.408;24.626;2023-04-06T11:06:26;5.17;;;3.80;;
8312;SDS011;4194;43.408;24.626;2023-04-06T11:08:55;5.73;;;4.00;;
8312;SDS011;4194;43.408;24.626;2023-04-06T11:11:23;5.57;;;3.77;;
8312;SDS011;4194;43.408;24.626;2023-04-06T11:16:22;5.50;;;3.87;;
8312;SDS011;4194;43.408;24.626;2023-04-06T11:18:52;5.33;;;4.30;;
8312;SDS011;4194;43.408;24.626;2023-04-06T11:21:31;8.83;;;4.43;;
8312;SDS011;4194;43.408;24.626;2023-04-06T11:26:54;5.73;;;3.87;;
8312;SDS011;4194;43.408;24.626;2023-04-06T11:29:22;4.70;;;3.90;;
8312;SDS011;4194;43.408;24.626;2023-04-06T11:31:49;6.63;;;4.13;;
8312;SDS011;4194;43.408;24.626;2023-04-06T11:34:22;4.37;;;3.80;;
8312;SDS011;4194;43.408;24.626;2023-04-06T11:36:59;6.10;;;3.70;;
8312;SDS011;4194;43.408;24.626;2023-04-06T11:39:28;6.53;;;3.53;;
8312;SDS011;4194;43.408;24.626;2023-04-06T11:41:58;7.10;;;4.27;;
8312;SDS011;4194;43.408;24.626;2023-04-06T11:47:04;6.80;;;3.93;;
8312;SDS011;4194;43.408;24.626;2023-04-06T11:49:36;6.83;;;3.70;;
8312;SDS011;4194;43.408;24.626;2023-04-06T11:52:13;5.17;;;3.40;;
8312;SDS011;4194;43.408;24.626;2023-04-06T11:54:50;9.47;;;4.93;;
8312;SDS011;4194;43.408;24.626;2023-04-06T11:57:17;5.20;;;3.40;;
8312;SDS011;4194;43.408;24.626;2023-04-06T11:59:43;4.70;;;3.57;;
8312;SDS011;4194;43.408;24.626;2023-04-06T12:02:10;8.77;;;4.03;;
8312;SDS011;4194;43.408;24.626;2023-04-06T12:04:36;5.20;;;3.50;;
8312;SDS011;4194;43.408;24.626;2023-04-06T12:07:02;10.07;;;4.03;;
8312;SDS011;4194;43.408;24.626;2023-04-06T12:09:28;4.10;;;3.37;;
8312;SDS011;4194;43.408;24.626;2023-04-06T12:11:54;5.63;;;3.60;;
8312;SDS011;4194;43.408;24.626;2023-04-06T12:14:21;4.00;;;3.40;;
8312;SDS011;4194;43.408;24.626;2023-04-06T12:16:47;4.07;;;3.50;;
8312;SDS011;4194;43.408;24.626;2023-04-06T12:19:13;3.80;;;3.27;;
8312;SDS011;4194;43.408;24.626;2023-04-06T12:21:38;5.30;;;3.87;;
8312;SDS011;4194;43.408;24.626;2023-04-06T12:24:05;6.90;;;3.50;;
8312;SDS011;4194;43.408;24.626;2023-04-06T12:26:31;4.03;;;3.57;;
8312;SDS011;4194;43.408;24.626;2023-04-06T12:29:01;3.90;;;3.27;;
8312;SDS011;4194;43.408;24.626;2023-04-06T12:31:32;5.97;;;3.20;;
8312;SDS011;4194;43.408;24.626;2023-04-06T12:33:59;4.27;;;3.60;;
8312;SDS011;4194;43.408;24.626;2023-04-06T12:36:27;6.17;;;3.20;;
8312;SDS011;4194;43.408;24.626;2023-04-06T12:38:53;5.20;;;3.57;;
8312;SDS011;4194;43.408;24.626;2023-04-06T12:41:19;7.40;;;3.43;;
8312;SDS011;4194;43.408;24.626;2023-04-06T12:43:45;6.37;;;3.50;;
8312;SDS011;4194;43.408;24.626;2023-04-06T12:46:11;7.03;;;3.53;;
8312;SDS011;4194;43.408;24.626;2023-04-06T12:48:37;7.87;;;3.20;;
8312;SDS011;4194;43.408;24.626;2023-04-06T12:51:04;6.17;;;3.17;;
8312;SDS011;4194;43.408;24.626;2023-04-06T12:53:31;6.73;;;3.20;;
8312;SDS011;4194;43.408;24.626;2023-04-06T12:55:57;5.20;;;3.03;;
8312;SDS011;4194;43.408;24.626;2023-04-06T12:58:24;5.10;;;2.80;;
8312;SDS011;4194;43.408;24.626;2023-04-06T13:00:53;4.50;;;3.43;;
8312;SDS011;4194;43.408;24.626;2023-04-06T13:03:20;5.63;;;3.77;;
8312;SDS011;4194;43.408;24.626;2023-04-06T13:05:47;6.93;;;3.47;;
8312;SDS011;4194;43.408;24.626;2023-04-06T13:08:14;8.30;;;3.67;;
8312;SDS011;4194;43.408;24.626;2023-04-06T13:10:46;6.50;;;3.73;;
8312;SDS011;4194;43.408;24.626;2023-04-06T13:13:16;4.00;;;3.20;;
8312;SDS011;4194;43.408;24.626;2023-04-06T13:15:42;4.40;;;3.40;;
8312;SDS011;4194;43.408;24.626;2023-04-06T13:18:10;10.30;;;3.93;;
8312;SDS011;4194;43.408;24.626;2023-04-06T13:20:36;3.97;;;3.30;;
8312;SDS011;4194;43.408;24.626;2023-04-06T13:23:02;4.27;;;3.37;;
8312;SDS011;4194;43.408;24.626;2023-04-06T13:25:27;5.33;;;3.40;;
8312;SDS011;4194;43.408;24.626;2023-04-06T13:27:54;5.37;;;3.10;;
8312;SDS011;4194;43.408;24.626;2023-04-06T13:30:20;5.40;;;3.60;;
8312;SDS011;4194;43.408;24.626;2023-04-06T13:32:46;4.87;;;3.20;;
8312;SDS011;4194;43.408;24.626;2023-04-06T13:35:12;3.50;;;2.97;;
8312;SDS011;4194;43.408;24.626;2023-04-06T13:37:38;4.87;;;3.40;;
8312;SDS011;4194;43.408;24.626;2023-04-06T13:40:04;6.93;;;3.63;;
8312;SDS011;4194;43.408;24.626;2023-04-06T13:42:31;5.40;;;3.03;;
8312;SDS011;4194;43.408;24.626;2023-04-06T13:44:57;4.67;;;3.43;;
8312;SDS011;4194;43.408;24.626;2023-04-06T13:47:24;5.43;;;4.03;;
8312;SDS011;4194;43.408;24.626;2023-04-06T13:49:50;5.40;;;3.60;;
8312;SDS011;4194;43.408;24.626;2023-04-06T13:52:19;6.17;;;3.73;;
8312;SDS011;4194;43.408;24.626;2023-04-06T13:54:45;7.00;;;3.90;;
8312;SDS011;4194;43.408;24.626;2023-04-06T13:57:11;5.97;;;4.17;;
8312;SDS011;4194;43.408;24.626;2023-04-06T13:59:38;4.80;;;3.20;;
8312;SDS011;4194;43.408;24.626;2023-04-06T14:02:05;4.57;;;3.37;;
8312;SDS011;4194;43.408;24.626;2023-04-06T14:04:32;4.63;;;3.00;;
8312;SDS011;4194;43.408;24.626;2023-04-06T14:06:59;4.93;;;3.47;;
8312;SDS011;4194;43.408;24.626;2023-04-06T14:09:26;3.87;;;3.20;;
8312;SDS011;4194;43.408;24.626;2023-04-06T14:11:52;12.77;;;3.67;;
8312;SDS011;4194;43.408;24.626;2023-04-06T14:14:18;4.63;;;3.33;;
8312;SDS011;4194;43.408;24.626;2023-04-06T14:16:44;3.47;;;2.87;;
8312;SDS011;4194;43.408;24.626;2023-04-06T14:19:11;4.93;;;3.80;;
8312;SDS011;4194;43.408;24.626;2023-04-06T14:21:40;6.10;;;4.17;;
8312;SDS011;4194;43.408;24.626;2023-04-06T14:24:07;7.33;;;3.30;;
8312;SDS011;4194;43.408;24.626;2023-04-06T14:26:34;6.90;;;3.83;;
8312;SDS011;4194;43.408;24.626;2023-04-06T14:29:00;8.00;;;3.70;;
8312;SDS011;4194;43.408;24.626;2023-04-06T14:31:27;4.97;;;4.07;;
8312;SDS011;4194;43.408;24.626;2023-04-06T14:33:53;11.43;;;5.33;;
8312;SDS011;4194;43.408;24.626;2023-04-06T14:36:19;6.80;;;4.03;;
8312;SDS011;4194;43.408;24.626;2023-04-06T14:38:45;7.13;;;3.93;;
8312;SDS011;4194;43.408;24.626;2023-04-06T14:41:17;6.90;;;3.50;;
8312;SDS011;4194;43.408;24.626;2023-04-06T14:43:47;6.77;;;3.70;;
8312;SDS011;4194;43.408;24.626;2023-04-06T14:46:13;10.23;;;5.97;;
8312;SDS011;4194;43.408;24.626;2023-04-06T14:48:41;8.97;;;4.63;;
8312;SDS011;4194;43.408;24.626;2023-04-06T14:51:06;6.67;;;4.70;;
8312;SDS011;4194;43.408;24.626;2023-04-06T14:53:32;9.00;;;4.40;;
8312;SDS011;4194;43.408;24.626;2023-04-06T14:55:58;8.60;;;5.43;;
8312;SDS011;4194;43.408;24.626;2023-04-06T14:58:24;4.90;;;4.00;;
8312;SDS011;4194;43.408;24.626;2023-04-06T15:01:00;8.85;;;6.03;;
8312;SDS011;4194;43.408;24.626;2023-04-06T15:03:27;8.07;;;5.03;;
8312;SDS011;4194;43.408;24.626;2023-04-06T15:05:54;8.67;;;4.63;;